Terminal Aerodrome Forecast
Issued by NWS Grand Forks, ND

Home | Current Version | Previous Version | Graphics & Text | Print | Product List | Glossary On
Versions: 1 2 3 4 5 6 7 8 9 10 11 12 13
000
FTUS43 KFGF 031700
TAFFAR
TAF
KFAR 031720Z 0318/0418 32025G35KT P6SM SCT015 BKN035
      TEMPO 0318/0321 OVC025
     FM032300 32018G25KT P6SM SCT015 SCT060
     FM040300 31013KT P6SM SCT250=

USA.gov is the U.S. government's official web portal to all federal, state and local government web resources and services.